createdAt,value
2019-03-20T00:01:07.887Z,7.80
2019-03-20T00:03:40.531Z,12.40
2019-03-20T00:06:12.526Z,10.37
2019-03-20T00:08:44.589Z,8.40
2019-03-20T00:11:19.822Z,12.93
2019-03-20T00:13:52.288Z,10.50
2019-03-20T00:16:24.592Z,11.53
2019-03-20T00:18:58.196Z,11.63
2019-03-20T00:21:31.243Z,10.97
2019-03-20T00:24:05.856Z,11.23
2019-03-20T00:26:37.978Z,12.40
2019-03-20T00:29:11.498Z,12.40
2019-03-20T00:31:45.061Z,12.37
2019-03-20T00:34:17.072Z,12.70
2019-03-20T00:36:49.593Z,12.00
2019-03-20T00:39:21.755Z,11.13
2019-03-20T00:41:56.016Z,12.00
2019-03-20T00:44:29.078Z,11.37
2019-03-20T00:47:02.440Z,11.07
2019-03-20T00:49:34.513Z,14.57
2019-03-20T00:52:06.561Z,9.20
2019-03-20T00:54:39.536Z,13.90
2019-03-20T00:57:12.053Z,11.70
2019-03-20T00:59:44.008Z,13.63
2019-03-20T01:02:16.539Z,12.53
2019-03-20T01:04:49.840Z,11.43
2019-03-20T01:07:21.902Z,11.60
2019-03-20T01:09:55.673Z,12.80
2019-03-20T01:12:28.543Z,12.10
2019-03-20T01:15:01.214Z,13.33
2019-03-20T01:17:33.378Z,10.93
2019-03-20T01:20:06.961Z,11.03
2019-03-20T01:22:38.980Z,11.33
2019-03-20T01:25:14.502Z,15.80
2019-03-20T01:27:48.404Z,12.47
2019-03-20T01:30:51.745Z,11.00
2019-03-20T01:33:24.216Z,11.80
2019-03-20T01:35:58.302Z,11.00
2019-03-20T01:38:30.273Z,10.53
2019-03-20T01:41:03.345Z,10.77
2019-03-20T01:43:36.005Z,13.23
2019-03-20T01:46:08.369Z,8.40
2019-03-20T01:48:40.268Z,10.50
2019-03-20T01:51:22.547Z,11.67
2019-03-20T01:53:55.640Z,10.23
2019-03-20T01:56:28.703Z,9.53
2019-03-20T01:59:01.828Z,13.20
2019-03-20T02:01:34.051Z,9.87
2019-03-20T02:04:06.240Z,7.40
2019-03-20T02:06:38.969Z,10.80
2019-03-20T02:09:11.258Z,8.63
2019-03-20T02:11:43.147Z,8.17
2019-03-20T02:14:15.663Z,7.37
2019-03-20T02:16:47.709Z,8.27
2019-03-20T02:19:21.944Z,8.17
2019-03-20T02:21:54.043Z,9.47
2019-03-20T02:24:27.578Z,10.63
2019-03-20T02:27:00.483Z,9.27
2019-03-20T02:29:33.197Z,12.07
2019-03-20T02:32:06.217Z,8.47
2019-03-20T02:34:38.695Z,10.20
2019-03-20T02:37:10.963Z,10.47
2019-03-20T02:39:43.625Z,9.67
2019-03-20T02:42:16.657Z,9.87
2019-03-20T02:44:48.657Z,10.17
2019-03-20T02:47:22.475Z,9.57
2019-03-20T02:49:55.692Z,9.93
2019-03-20T02:52:29.183Z,8.87
2019-03-20T02:55:01.218Z,11.30
2019-03-20T02:57:33.213Z,9.40
2019-03-20T03:00:07.153Z,10.40
2019-03-20T03:02:40.269Z,11.13
2019-03-20T03:05:12.777Z,10.93
2019-03-20T03:07:45.113Z,7.03
2019-03-20T03:10:19.551Z,9.13
2019-03-20T03:12:51.927Z,10.07
2019-03-20T03:15:24.029Z,9.57
2019-03-20T03:17:57.176Z,12.70
2019-03-20T03:20:29.228Z,10.60
2019-03-20T03:23:02.232Z,11.13
2019-03-20T03:25:36.127Z,11.47
2019-03-20T03:28:10.141Z,11.40
2019-03-20T03:30:42.861Z,9.80
2019-03-20T03:33:15.028Z,10.57
2019-03-20T03:35:48.093Z,11.20
2019-03-20T03:38:22.838Z,10.73
2019-03-20T03:40:56.277Z,7.40
2019-03-20T03:43:28.373Z,10.97
2019-03-20T03:46:00.431Z,8.93
2019-03-20T03:48:32.511Z,9.47
2019-03-20T03:51:04.954Z,10.53
2019-03-20T03:53:38.227Z,8.33
2019-03-20T03:56:10.444Z,10.60
2019-03-20T03:58:44.205Z,9.10
2019-03-20T04:01:16.344Z,12.07
2019-03-20T04:03:48.462Z,7.87
2019-03-20T04:06:34.581Z,10.00
2019-03-20T04:08:54.299Z,9.80
2019-03-20T04:11:26.835Z,10.63
2019-03-20T04:13:58.848Z,10.33
2019-03-20T04:16:30.989Z,9.30
2019-03-20T04:19:02.930Z,10.63
2019-03-20T04:21:35.212Z,8.30
2019-03-20T04:24:07.421Z,7.83
2019-03-20T04:26:39.945Z,9.70
2019-03-20T04:29:13.076Z,10.47
2019-03-20T04:31:45.220Z,8.70
2019-03-20T04:34:17.469Z,10.10
2019-03-20T04:36:49.460Z,10.80
2019-03-20T04:39:21.512Z,11.33
2019-03-20T04:41:53.444Z,9.53
2019-03-20T04:44:25.859Z,9.57
2019-03-20T04:46:57.828Z,10.37
2019-03-20T04:49:29.761Z,9.73
2019-03-20T04:52:01.613Z,8.63
2019-03-20T04:54:44.917Z,8.97
2019-03-20T04:57:16.749Z,8.37
2019-03-20T04:59:49.650Z,13.43
2019-03-20T05:02:21.649Z,11.70
2019-03-20T05:04:54.052Z,11.50
2019-03-20T05:07:26.082Z,12.50
2019-03-20T05:09:58.451Z,9.13
2019-03-20T05:12:30.390Z,12.47
2019-03-20T05:15:02.683Z,12.37
2019-03-20T05:17:45.480Z,11.90
2019-03-20T05:20:17.369Z,9.57
2019-03-20T05:22:50.168Z,9.53
2019-03-20T05:25:23.181Z,10.13
2019-03-20T05:27:55.155Z,10.63
2019-03-20T05:30:27.530Z,10.27
2019-03-20T05:32:59.447Z,11.87
2019-03-20T05:38:36.722Z,13.07
2019-03-20T05:41:09.208Z,11.87
2019-03-20T05:43:41.156Z,9.40
2019-03-20T05:46:13.069Z,9.87
2019-03-20T05:48:45.009Z,10.07
2019-03-20T05:51:16.931Z,10.10
2019-03-20T05:53:48.843Z,10.97
2019-03-20T05:56:21.013Z,10.87
2019-03-20T05:58:58.838Z,12.07
2019-03-20T06:01:30.735Z,10.27
2019-03-20T06:04:02.682Z,9.97
2019-03-20T06:06:37.955Z,10.57
2019-03-20T06:09:12.629Z,9.43
2019-03-20T06:11:45.548Z,14.20
2019-03-20T06:14:18.102Z,11.67
2019-03-20T06:16:59.142Z,10.37
2019-03-20T06:19:31.073Z,8.60
2019-03-20T06:22:02.979Z,11.20
2019-03-20T06:24:35.367Z,11.27
2019-03-20T06:27:08.311Z,10.77
2019-03-20T06:29:40.682Z,10.27
2019-03-20T06:32:14.145Z,11.93
2019-03-20T06:34:48.844Z,10.53
2019-03-20T06:37:20.126Z,13.50
2019-03-20T06:39:53.390Z,13.40
2019-03-20T06:42:25.787Z,12.27
2019-03-20T06:44:57.655Z,10.33
2019-03-20T06:47:29.981Z,13.53
2019-03-20T06:50:01.896Z,15.17
2019-03-20T06:52:33.806Z,10.77
2019-03-20T06:55:06.239Z,12.33
2019-03-20T06:57:38.087Z,10.60
2019-03-20T07:00:53.288Z,9.27
2019-03-20T07:04:07.363Z,11.00
2019-03-20T07:07:19.301Z,8.20
2019-03-20T07:10:16.738Z,9.87
2019-03-20T07:12:48.656Z,9.07
2019-03-20T07:15:20.565Z,12.07
2019-03-20T07:17:52.597Z,9.50
2019-03-20T07:20:25.276Z,9.63
2019-03-20T07:22:57.117Z,6.80
2019-03-20T07:25:29.011Z,12.37
2019-03-20T07:28:00.896Z,9.10
2019-03-20T07:30:32.767Z,7.53
2019-03-20T07:33:04.694Z,8.30
2019-03-20T07:35:36.597Z,11.50
2019-03-20T07:38:10.010Z,8.60
2019-03-20T07:40:42.995Z,7.93
2019-03-20T07:43:15.332Z,9.53
2019-03-20T07:45:47.233Z,7.53
2019-03-20T07:48:22.292Z,7.80
2019-03-20T07:50:53.163Z,11.67
2019-03-20T07:53:26.434Z,7.47
2019-03-20T07:55:58.383Z,10.23
2019-03-20T07:58:30.739Z,9.57
2019-03-20T08:01:03.276Z,10.63
2019-03-20T08:03:35.213Z,9.73
2019-03-20T08:06:07.070Z,7.50
2019-03-20T08:08:39.411Z,10.90
2019-03-20T08:11:12.292Z,7.90
2019-03-20T08:13:44.154Z,9.53
2019-03-20T08:16:17.341Z,9.07
2019-03-20T08:18:49.648Z,8.53
2019-03-20T08:21:21.475Z,10.13
2019-03-20T08:23:53.336Z,8.70
2019-03-20T08:26:25.280Z,9.03
2019-03-20T08:28:57.620Z,5.87
2019-03-20T08:31:29.507Z,9.33
2019-03-20T08:34:01.382Z,9.03
2019-03-20T08:36:33.235Z,7.67
2019-03-20T08:39:06.910Z,7.70
2019-03-20T08:41:41.191Z,8.33
2019-03-20T08:44:13.529Z,8.47
2019-03-20T08:46:45.306Z,7.10
2019-03-20T08:49:17.207Z,8.70
2019-03-20T08:51:49.524Z,8.70
2019-03-20T08:54:21.747Z,8.20
2019-03-20T08:56:54.131Z,9.20
2019-03-20T08:59:26.503Z,11.37
2019-03-20T09:01:58.384Z,12.63
2019-03-20T09:04:30.705Z,13.43
2019-03-20T09:07:02.597Z,7.80
2019-03-20T09:09:35.576Z,8.53
2019-03-20T09:12:08.369Z,9.90
2019-03-20T09:14:40.199Z,10.23
2019-03-20T09:17:12.586Z,8.53
2019-03-20T09:19:45.202Z,12.47
2019-03-20T09:22:17.028Z,12.03
2019-03-20T09:24:48.866Z,10.83
2019-03-20T09:27:20.760Z,7.43
2019-03-20T09:29:52.555Z,9.63
2019-03-20T09:32:24.993Z,11.07
2019-03-20T09:34:56.817Z,10.17
2019-03-20T09:37:29.153Z,13.33
2019-03-20T09:40:01.023Z,12.07
2019-03-20T09:42:34.174Z,9.87
2019-03-20T09:45:07.489Z,10.60
2019-03-20T09:47:39.772Z,10.17
2019-03-20T09:50:13.160Z,10.60
2019-03-20T09:52:45.036Z,9.93
2019-03-20T09:55:17.127Z,10.47
2019-03-20T09:57:49.690Z,9.60
2019-03-20T10:00:23.995Z,5.77
2019-03-20T10:02:56.091Z,5.90
2019-03-20T10:05:27.882Z,5.70
2019-03-20T10:07:59.746Z,4.63
2019-03-20T10:10:32.122Z,3.13
2019-03-20T10:13:05.197Z,5.30
2019-03-20T10:15:37.835Z,4.00
2019-03-20T10:18:10.159Z,6.77
2019-03-20T10:20:43.414Z,4.63
2019-03-20T10:23:16.684Z,4.63
2019-03-20T10:25:48.604Z,7.20
2019-03-20T10:28:20.979Z,5.37
2019-03-20T10:30:53.001Z,6.07
2019-03-20T10:33:26.882Z,6.53
2019-03-20T10:35:58.726Z,5.83
2019-03-20T10:38:31.066Z,17.10
2019-03-20T10:41:02.874Z,7.10
2019-03-20T10:43:34.748Z,4.20
2019-03-20T10:46:06.653Z,5.67
2019-03-20T10:48:39.165Z,6.83
2019-03-20T10:51:12.852Z,4.93
2019-03-20T10:53:45.060Z,6.27
2019-03-20T10:56:18.804Z,5.40
2019-03-20T10:58:51.789Z,4.47
2019-03-20T11:01:24.225Z,4.10
2019-03-20T11:03:56.701Z,4.43
2019-03-20T11:06:29.946Z,5.30
2019-03-20T11:09:02.113Z,6.57
2019-03-20T11:11:36.741Z,4.63
2019-03-20T11:14:08.944Z,5.60
2019-03-20T11:16:41.850Z,5.50
2019-03-20T11:19:13.793Z,5.83
2019-03-20T11:21:46.185Z,7.37
2019-03-20T11:24:19.380Z,6.80
2019-03-20T11:26:51.594Z,6.47
2019-03-20T11:29:25.484Z,4.10
2019-03-20T11:31:59.428Z,6.63
2019-03-20T11:34:32.831Z,6.90
2019-03-20T11:37:05.202Z,7.13
2019-03-20T11:39:37.484Z,7.60
2019-03-20T11:42:10.429Z,7.23
2019-03-20T11:44:42.442Z,3.90
2019-03-20T11:47:14.747Z,4.53
2019-03-20T11:49:48.298Z,4.33
2019-03-20T11:52:21.779Z,7.57
2019-03-20T11:54:53.995Z,4.70
2019-03-20T11:57:27.108Z,5.77
2019-03-20T12:00:00.428Z,4.43
2019-03-20T12:02:33.161Z,3.10
2019-03-20T12:05:06.221Z,3.80
2019-03-20T12:07:38.803Z,6.03
2019-03-20T12:10:14.934Z,4.10
2019-03-20T12:12:47.391Z,5.70
2019-03-20T12:15:20.730Z,5.03
2019-03-20T12:17:53.448Z,4.90
2019-03-20T12:20:26.467Z,6.63
2019-03-20T12:22:58.641Z,3.73
2019-03-20T12:25:31.017Z,5.53
2019-03-20T12:28:03.068Z,4.87
2019-03-20T12:30:35.419Z,4.77
2019-03-20T12:33:09.113Z,4.47
2019-03-20T12:35:42.293Z,4.07
2019-03-20T12:38:15.461Z,3.77
2019-03-20T12:40:49.044Z,3.83
2019-03-20T12:43:21.293Z,4.83
2019-03-20T12:45:53.884Z,3.30
2019-03-20T12:48:30.738Z,6.13
2019-03-20T12:51:02.956Z,4.67
2019-03-20T12:53:35.653Z,4.60
2019-03-20T12:56:07.692Z,4.77
2019-03-20T12:58:41.561Z,3.77
2019-03-20T13:01:15.059Z,7.13
2019-03-20T13:03:48.013Z,5.43
2019-03-20T13:06:20.216Z,5.83
2019-03-20T13:08:53.629Z,3.73
2019-03-20T13:11:26.922Z,4.63
2019-03-20T13:13:59.109Z,5.07
2019-03-20T13:16:32.603Z,3.53
2019-03-20T13:19:04.997Z,5.87
2019-03-20T13:21:39.070Z,6.67
2019-03-20T13:24:11.049Z,2.67
2019-03-20T13:26:43.247Z,5.23
2019-03-20T13:29:16.247Z,3.77
2019-03-20T13:31:48.652Z,4.07
2019-03-20T13:34:23.612Z,3.50
2019-03-20T13:36:57.634Z,5.93
2019-03-20T13:39:30.275Z,4.40
2019-03-20T13:42:02.579Z,5.33
2019-03-20T13:44:34.605Z,4.40
2019-03-20T13:47:08.226Z,4.67
2019-03-20T13:49:41.182Z,5.97
2019-03-20T13:52:15.090Z,4.20
2019-03-20T13:54:47.157Z,5.90
2019-03-20T13:57:19.443Z,4.27
2019-03-20T13:59:52.376Z,3.63
2019-03-20T14:02:24.231Z,4.73
2019-03-20T14:05:00.042Z,4.53
2019-03-20T14:07:32.787Z,4.70
2019-03-20T14:10:07.935Z,4.37
2019-03-20T14:12:40.606Z,5.47
2019-03-20T14:15:13.675Z,5.37
2019-03-20T14:17:47.776Z,4.00
2019-03-20T14:20:22.419Z,5.00
2019-03-20T14:22:56.164Z,5.97
2019-03-20T14:25:30.079Z,4.97
2019-03-20T14:28:02.336Z,4.37
2019-03-20T14:30:35.131Z,6.37
2019-03-20T14:33:08.211Z,6.63
2019-03-20T14:35:40.180Z,4.43
2019-03-20T14:38:12.947Z,4.40
2019-03-20T14:40:47.275Z,4.67
2019-03-20T14:43:19.656Z,4.63
2019-03-20T14:45:51.901Z,4.77
2019-03-20T14:48:26.214Z,4.53
2019-03-20T14:50:59.021Z,6.03
2019-03-20T14:53:32.116Z,4.37
2019-03-20T14:56:05.909Z,5.10
2019-03-20T14:58:38.914Z,4.17
2019-03-20T15:01:11.231Z,4.23
2019-03-20T15:03:44.261Z,5.20
2019-03-20T15:06:18.080Z,7.53
2019-03-20T15:08:50.193Z,4.97
2019-03-20T15:11:22.549Z,4.80
2019-03-20T15:13:55.427Z,5.13
2019-03-20T15:16:27.634Z,5.40
2019-03-20T15:19:01.011Z,5.10
2019-03-20T15:21:32.884Z,6.77
2019-03-20T15:24:05.273Z,3.47
2019-03-20T15:26:39.080Z,4.40
2019-03-20T15:29:11.880Z,8.53
2019-03-20T15:31:45.584Z,5.50
2019-03-20T15:34:18.051Z,4.47
2019-03-20T15:36:50.080Z,5.73
2019-03-20T15:39:24.480Z,7.30
2019-03-20T15:42:00.517Z,4.53
2019-03-20T15:44:33.208Z,4.50
2019-03-20T15:47:06.166Z,4.70
2019-03-20T15:49:38.564Z,5.33
2019-03-20T15:52:12.170Z,6.33
2019-03-20T15:54:45.290Z,5.10
2019-03-20T15:57:17.480Z,5.33
2019-03-20T15:59:50.527Z,5.30
2019-03-20T16:02:24.544Z,5.30
2019-03-20T16:04:58.968Z,5.37
2019-03-20T16:07:31.392Z,6.63
2019-03-20T16:10:04.097Z,3.87
2019-03-20T16:12:36.539Z,3.70
2019-03-20T16:15:11.846Z,5.43
2019-03-20T16:17:43.834Z,5.23
2019-03-20T16:20:16.007Z,5.93
2019-03-20T16:22:52.013Z,4.10
2019-03-20T16:25:24.359Z,5.63
2019-03-20T16:27:58.440Z,6.30
2019-03-20T16:30:31.332Z,5.10
2019-03-20T16:33:04.659Z,8.47
2019-03-20T16:35:42.136Z,3.80
2019-03-20T16:38:14.805Z,4.97
2019-03-20T16:40:47.312Z,6.47
2019-03-20T16:43:19.311Z,5.33
2019-03-20T16:45:54.160Z,5.30
2019-03-20T16:48:27.337Z,7.13
2019-03-20T16:51:02.574Z,6.00
2019-03-20T16:53:35.048Z,5.33
2019-03-20T16:56:08.059Z,3.70
2019-03-20T16:58:41.121Z,4.20
2019-03-20T17:01:15.875Z,4.50
2019-03-20T17:03:48.968Z,5.83
2019-03-20T17:06:23.081Z,5.00
2019-03-20T17:08:57.782Z,8.30
2019-03-20T17:11:38.137Z,4.40
2019-03-20T17:14:04.730Z,5.40
2019-03-20T17:16:42.744Z,4.17
2019-03-20T17:19:12.764Z,4.80
2019-03-20T17:21:47.902Z,5.60
2019-03-20T17:24:20.138Z,5.33
2019-03-20T17:26:52.483Z,5.57
2019-03-20T17:29:27.640Z,7.97
2019-03-20T17:32:00.245Z,4.07
2019-03-20T17:34:32.342Z,7.17
2019-03-20T17:37:05.427Z,4.67
2019-03-20T17:39:37.390Z,3.97
2019-03-20T17:42:09.356Z,4.30
2019-03-20T17:44:41.272Z,5.33
2019-03-20T17:47:13.177Z,7.47
2019-03-20T17:49:46.605Z,7.13
2019-03-20T17:52:21.225Z,6.17
2019-03-20T17:54:54.650Z,5.30
2019-03-20T17:57:27.653Z,6.13
2019-03-20T17:59:59.892Z,6.47
2019-03-20T18:02:33.484Z,4.73
2019-03-20T18:05:06.101Z,9.13
2019-03-20T18:07:39.852Z,5.53
2019-03-20T18:10:12.000Z,7.80
2019-03-20T18:12:45.298Z,7.10
2019-03-20T18:15:17.543Z,6.83
2019-03-20T18:17:53.552Z,6.83
2019-03-20T18:20:27.398Z,8.17
2019-03-20T18:23:01.435Z,8.60
2019-03-20T18:25:33.927Z,6.17
2019-03-20T18:28:06.381Z,6.97
2019-03-20T18:30:40.512Z,6.17
2019-03-20T18:33:21.239Z,7.17
2019-03-20T18:35:53.941Z,6.67
2019-03-20T18:38:28.079Z,6.57
2019-03-20T18:41:04.840Z,5.27
2019-03-20T18:43:37.866Z,5.23
2019-03-20T18:46:10.802Z,5.73
2019-03-20T18:48:43.924Z,5.93
2019-03-20T18:51:16.697Z,6.27
2019-03-20T18:53:49.154Z,6.60
2019-03-20T18:56:22.120Z,10.50
2019-03-20T18:58:57.540Z,6.23
2019-03-20T19:01:30.235Z,7.37
2019-03-20T19:04:02.447Z,9.40
2019-03-20T19:06:36.786Z,7.30
2019-03-20T19:09:10.781Z,9.30
2019-03-20T19:11:44.016Z,7.93
2019-03-20T19:14:16.982Z,7.60
2019-03-20T19:16:49.274Z,8.33
2019-03-20T19:19:22.951Z,9.10
2019-03-20T19:21:57.529Z,10.07
2019-03-20T19:24:31.881Z,10.20
2019-03-20T19:27:04.375Z,8.00
2019-03-20T19:29:36.646Z,9.37
2019-03-20T19:32:09.264Z,9.00
2019-03-20T19:34:43.870Z,10.97
2019-03-20T19:37:18.679Z,10.90
2019-03-20T19:39:50.854Z,9.77
2019-03-20T19:42:24.104Z,9.23
2019-03-20T19:44:57.103Z,11.47
2019-03-20T19:47:30.505Z,9.17
2019-03-20T19:50:02.723Z,12.60
2019-03-20T19:52:34.734Z,13.40
2019-03-20T19:55:07.871Z,13.77
2019-03-20T19:57:41.448Z,12.27
2019-03-20T20:00:16.089Z,11.57
2019-03-20T20:02:48.500Z,11.70
2019-03-20T20:05:23.812Z,13.67
2019-03-20T20:07:55.831Z,12.63
2019-03-20T20:10:28.567Z,11.20
2019-03-20T20:13:00.610Z,13.43
2019-03-20T20:15:34.481Z,11.67
2019-03-20T20:18:07.522Z,12.57
2019-03-20T20:20:41.982Z,12.50
2019-03-20T20:23:15.627Z,12.33
2019-03-20T20:25:48.478Z,10.27
2019-03-20T20:28:22.136Z,10.93
2019-03-20T20:30:54.253Z,11.30
2019-03-20T20:33:28.431Z,10.40
2019-03-20T20:36:02.643Z,10.17
2019-03-20T20:38:35.000Z,12.60
2019-03-20T20:41:07.322Z,13.13
2019-03-20T20:43:40.928Z,12.13
2019-03-20T20:46:14.212Z,13.03
2019-03-20T20:48:46.709Z,11.70
2019-03-20T20:51:19.463Z,11.63
2019-03-20T20:53:52.107Z,16.73
2019-03-20T20:56:24.212Z,12.90
2019-03-20T20:58:58.020Z,15.03
2019-03-20T21:01:30.402Z,13.43
2019-03-20T21:04:02.360Z,12.93
2019-03-20T21:06:36.544Z,13.43
2019-03-20T21:09:09.985Z,12.93
2019-03-20T21:11:43.548Z,12.60
2019-03-20T21:14:15.467Z,14.87
2019-03-20T21:16:48.179Z,11.13
2019-03-20T21:19:38.204Z,10.90
2019-03-20T21:22:47.166Z,16.27
2019-03-20T21:25:21.095Z,10.37
2019-03-20T21:28:58.174Z,9.03
2019-03-20T21:31:38.139Z,10.80
2019-03-20T21:34:50.381Z,9.70
2019-03-20T21:38:09.679Z,8.63
2019-03-20T21:41:15.142Z,11.77
2019-03-20T21:44:30.401Z,11.17
2019-03-20T21:47:38.895Z,10.43
2019-03-20T21:51:03.676Z,11.87
2019-03-20T21:54:09.035Z,10.17
2019-03-20T21:56:48.945Z,12.50
2019-03-20T21:59:57.184Z,10.97
2019-03-20T22:02:41.479Z,11.50
2019-03-20T22:05:30.014Z,13.10
2019-03-20T22:08:03.212Z,11.83
2019-03-20T22:11:10.914Z,12.67
2019-03-20T22:13:52.957Z,9.20
2019-03-20T22:17:02.637Z,8.67
2019-03-20T22:20:22.681Z,11.23
2019-03-20T22:23:40.619Z,10.47
2019-03-20T22:26:54.635Z,8.53
2019-03-20T22:29:29.604Z,10.30
2019-03-20T22:32:48.523Z,7.70
2019-03-20T22:36:07.800Z,12.37
2019-03-20T22:39:24.372Z,10.20
2019-03-20T22:42:36.770Z,11.40
2019-03-20T22:45:30.272Z,13.70
2019-03-20T22:48:49.507Z,13.90
2019-03-20T22:52:02.204Z,14.47
2019-03-20T22:55:24.894Z,12.33
2019-03-20T22:58:25.723Z,11.63
2019-03-20T23:00:58.725Z,12.93
2019-03-20T23:03:39.679Z,11.63
2019-03-20T23:06:12.317Z,11.50
2019-03-20T23:08:47.084Z,11.73
2019-03-20T23:11:20.953Z,10.30
2019-03-20T23:13:54.631Z,12.53
2019-03-20T23:16:27.477Z,10.40
2019-03-20T23:19:00.447Z,9.90
2019-03-20T23:21:33.064Z,11.57
2019-03-20T23:24:06.731Z,12.43
2019-03-20T23:26:41.685Z,11.83
2019-03-20T23:29:15.519Z,13.67
2019-03-20T23:31:50.032Z,12.50
2019-03-20T23:34:22.692Z,12.67
2019-03-20T23:36:55.504Z,11.93
2019-03-20T23:39:29.454Z,11.07
2019-03-20T23:42:02.206Z,15.10
2019-03-20T23:44:34.787Z,10.93
2019-03-20T23:47:07.336Z,15.37
2019-03-20T23:49:40.211Z,13.10
2019-03-20T23:52:12.972Z,11.93
2019-03-20T23:54:50.682Z,12.77
2019-03-20T23:57:24.387Z,9.87
2019-03-20T23:59:59.468Z,12.27
